createdAt,value
2022-11-28T00:00:31.137Z,20.40
2022-11-28T00:01:05.262Z,22.02
2022-11-28T00:01:41.290Z,19.25
2022-11-28T00:02:13.283Z,20.75
2022-11-28T00:02:45.391Z,20.62
2022-11-28T00:03:17.358Z,19.77
2022-11-28T00:03:49.565Z,21.33
2022-11-28T00:04:21.586Z,20.75
2022-11-28T00:04:53.570Z,21.08
2022-11-28T00:05:25.677Z,20.33
2022-11-28T00:05:57.686Z,21.50
2022-11-28T00:06:30.285Z,21.98
2022-11-28T00:07:02.435Z,22.98
2022-11-28T00:07:34.664Z,22.73
2022-11-28T00:08:06.778Z,20.73
2022-11-28T00:08:38.605Z,20.83
2022-11-28T00:09:10.500Z,21.48
2022-11-28T00:09:42.334Z,23.42
2022-11-28T00:10:14.195Z,23.40
2022-11-28T00:10:46.384Z,20.27
2022-11-28T00:11:18.850Z,20.60
2022-11-28T00:11:51.336Z,21.65
2022-11-28T00:12:24.078Z,21.12
2022-11-28T00:12:55.917Z,20.58
2022-11-28T00:13:27.735Z,19.98
2022-11-28T00:13:59.787Z,20.52
2022-11-28T00:14:31.746Z,20.83
2022-11-28T00:15:05.093Z,21.55
2022-11-28T00:15:36.999Z,21.37
2022-11-28T00:16:13.042Z,21.33
2022-11-28T00:16:46.047Z,19.80
2022-11-28T00:17:18.189Z,20.58
2022-11-28T00:17:50.041Z,19.85
2022-11-28T00:18:21.959Z,19.48
2022-11-28T00:18:55.212Z,20.17
2022-11-28T00:19:27.027Z,19.60
2022-11-28T00:19:59.169Z,20.02
2022-11-28T00:20:32.518Z,20.73
2022-11-28T00:21:10.807Z,19.60
2022-11-28T00:21:42.827Z,22.08
2022-11-28T00:22:14.695Z,21.12
2022-11-28T00:22:46.965Z,20.67
2022-11-28T00:23:18.869Z,20.80
2022-11-28T00:23:51.086Z,21.37
2022-11-28T00:24:22.935Z,19.48
2022-11-28T00:24:55.102Z,20.83
2022-11-28T00:25:26.939Z,20.10
2022-11-28T00:26:00.681Z,21.20
2022-11-28T00:26:39.330Z,19.92
2022-11-28T00:27:11.209Z,19.80
2022-11-28T00:27:43.065Z,20.37
2022-11-28T00:28:15.206Z,20.67
2022-11-28T00:28:47.731Z,20.70
2022-11-28T00:29:19.596Z,21.27
2022-11-28T00:29:51.409Z,18.48
2022-11-28T00:30:23.297Z,18.75
2022-11-28T00:30:55.113Z,20.60
2022-11-28T00:31:30.513Z,20.85
2022-11-28T00:32:03.515Z,20.75
2022-11-28T00:32:35.412Z,19.45
2022-11-28T00:33:07.228Z,19.17
2022-11-28T00:33:39.393Z,19.58
2022-11-28T00:34:13.871Z,20.52
2022-11-28T00:34:45.822Z,21.25
2022-11-28T00:35:17.676Z,20.45
2022-11-28T00:35:49.907Z,19.85
2022-11-28T00:36:22.284Z,20.60
2022-11-28T00:36:54.150Z,19.30
2022-11-28T00:37:26.074Z,20.70
2022-11-28T00:37:57.972Z,23.12
2022-11-28T00:38:30.299Z,23.80
2022-11-28T00:39:02.460Z,20.88
2022-11-28T00:39:34.396Z,22.10
2022-11-28T00:40:07.274Z,21.40
2022-11-28T00:40:39.204Z,21.62
2022-11-28T00:41:17.171Z,21.45
2022-11-28T00:41:49.190Z,20.40
2022-11-28T00:42:22.283Z,21.83
2022-11-28T00:42:54.174Z,20.10
2022-11-28T00:43:26.041Z,19.67
2022-11-28T00:43:58.125Z,18.73
2022-11-28T00:44:30.239Z,18.33
2022-11-28T00:45:02.094Z,19.95
2022-11-28T00:45:34.041Z,20.10
2022-11-28T00:46:06.682Z,19.00
2022-11-28T00:46:38.660Z,22.50
2022-11-28T00:47:10.508Z,18.98
2022-11-28T00:47:42.356Z,19.05
2022-11-28T00:48:14.191Z,20.20
2022-11-28T00:48:46.657Z,18.20
2022-11-28T00:49:18.559Z,19.87
2022-11-28T00:49:50.660Z,19.33
2022-11-28T00:50:22.559Z,21.30
2022-11-28T00:50:55.379Z,19.35
2022-11-28T00:51:32.930Z,18.92
2022-11-28T00:52:04.873Z,18.58
2022-11-28T00:52:36.699Z,20.70
2022-11-28T00:53:08.534Z,19.90
2022-11-28T00:53:42.596Z,19.30
2022-11-28T00:54:14.482Z,18.87
2022-11-28T00:54:46.329Z,19.45
2022-11-28T00:55:18.578Z,18.83
2022-11-28T00:55:50.507Z,19.35
2022-11-28T00:56:28.353Z,19.23
2022-11-28T00:57:00.178Z,18.85
2022-11-28T00:57:32.043Z,18.23
2022-11-28T00:58:04.004Z,17.98
2022-11-28T00:58:36.794Z,18.15
2022-11-28T00:59:08.745Z,19.62
2022-11-28T00:59:40.838Z,18.02
2022-11-28T01:00:13.234Z,19.17
2022-11-28T01:00:45.408Z,17.90
2022-11-28T01:01:25.014Z,17.48
2022-11-28T01:01:57.114Z,19.08
2022-11-28T01:02:29.122Z,19.37
2022-11-28T01:03:01.094Z,18.83
2022-11-28T01:03:32.958Z,18.80
2022-11-28T01:04:09.065Z,18.20
2022-11-28T01:04:41.219Z,19.00
2022-11-28T01:05:13.279Z,18.73
2022-11-28T01:05:45.462Z,19.20
2022-11-28T01:06:26.697Z,18.55
2022-11-28T01:06:58.555Z,19.75
2022-11-28T01:07:33.250Z,17.55
2022-11-28T01:08:05.131Z,16.80
2022-11-28T01:08:37.755Z,18.58
2022-11-28T01:09:13.487Z,17.55
2022-11-28T01:09:45.484Z,19.12
2022-11-28T01:10:17.746Z,18.55
2022-11-28T01:10:49.907Z,17.65
2022-11-28T01:11:22.553Z,18.35
2022-11-28T01:11:54.962Z,17.77
2022-11-28T01:12:26.834Z,18.83
2022-11-28T01:12:58.701Z,18.40
2022-11-28T01:13:30.769Z,19.17
2022-11-28T01:14:03.260Z,18.77
2022-11-28T01:14:35.167Z,18.60
2022-11-28T01:15:08.875Z,17.42
2022-11-28T01:15:42.394Z,17.37
2022-11-28T01:16:15.475Z,19.60
2022-11-28T01:16:47.777Z,17.12
2022-11-28T01:17:19.701Z,18.30
2022-11-28T01:17:51.526Z,16.65
2022-11-28T01:18:23.383Z,18.87
2022-11-28T01:18:55.289Z,17.92
2022-11-28T01:19:27.243Z,18.70
2022-11-28T01:19:59.136Z,17.83
2022-11-28T01:20:31.115Z,18.12
2022-11-28T01:21:03.586Z,16.17
2022-11-28T01:21:35.971Z,18.02
2022-11-28T01:22:07.839Z,16.62
2022-11-28T01:22:39.725Z,17.20
2022-11-28T01:23:11.636Z,17.60
2022-11-28T01:23:43.600Z,15.52
2022-11-28T01:24:16.476Z,17.27
2022-11-28T01:24:48.345Z,18.10
2022-11-28T01:25:20.408Z,16.00
2022-11-28T01:25:52.297Z,16.67
2022-11-28T01:26:27.069Z,17.52
2022-11-28T01:26:59.294Z,16.30
2022-11-28T01:27:31.506Z,16.67
2022-11-28T01:28:03.788Z,17.62
2022-11-28T01:28:36.232Z,16.77
2022-11-28T01:29:08.374Z,16.52
2022-11-28T01:29:40.211Z,16.90
2022-11-28T01:30:13.106Z,17.05
2022-11-28T01:30:44.934Z,17.05
2022-11-28T01:31:20.585Z,16.90
2022-11-28T01:31:52.643Z,16.30
2022-11-28T01:32:24.891Z,17.33
2022-11-28T01:32:56.715Z,15.35
2022-11-28T01:33:28.630Z,15.88
2022-11-28T01:34:00.557Z,16.55
2022-11-28T01:34:32.392Z,17.17
2022-11-28T01:35:04.650Z,15.63
2022-11-28T01:35:36.510Z,16.02
2022-11-28T01:36:10.480Z,16.12
2022-11-28T01:36:42.489Z,16.80
2022-11-28T01:37:14.291Z,16.05
2022-11-28T01:37:46.441Z,14.98
2022-11-28T01:38:18.299Z,15.88
2022-11-28T01:38:50.872Z,16.02
2022-11-28T01:39:22.731Z,15.55
2022-11-28T01:39:54.614Z,16.87
2022-11-28T01:40:26.567Z,16.73
2022-11-28T01:40:58.676Z,17.33
2022-11-28T01:41:30.672Z,16.52
2022-11-28T01:42:02.575Z,18.25
2022-11-28T01:42:34.495Z,16.50
2022-11-28T01:43:06.645Z,17.12
2022-11-28T01:43:57.432Z,15.38
2022-11-28T01:44:29.906Z,16.73
2022-11-28T01:45:10.621Z,16.17
2022-11-28T01:45:42.578Z,17.65
2022-11-28T01:46:14.506Z,15.23
2022-11-28T01:46:46.481Z,16.10
2022-11-28T01:47:23.214Z,16.30
2022-11-28T01:48:00.305Z,16.45
2022-11-28T01:48:42.492Z,15.10
2022-11-28T01:49:19.376Z,15.75
2022-11-28T01:49:52.951Z,16.70
2022-11-28T01:50:25.541Z,14.90
2022-11-28T01:51:02.150Z,16.52
2022-11-28T01:51:35.113Z,14.77
2022-11-28T01:52:13.451Z,16.12
2022-11-28T01:52:51.376Z,16.80
2022-11-28T01:53:25.753Z,15.98
2022-11-28T01:53:59.158Z,16.05
2022-11-28T01:54:33.250Z,15.23
2022-11-28T01:55:07.153Z,15.05
2022-11-28T01:56:17.629Z,15.82
2022-11-28T01:56:56.957Z,14.75
2022-11-28T01:57:29.581Z,15.88
2022-11-28T01:58:01.737Z,15.13
2022-11-28T01:58:36.567Z,15.85
2022-11-28T01:59:11.719Z,15.57
2022-11-28T01:59:49.141Z,16.23
2022-11-28T02:00:22.277Z,16.25
2022-11-28T02:00:54.739Z,15.35
2022-11-28T02:01:27.261Z,15.68
2022-11-28T02:01:59.651Z,16.12
2022-11-28T02:02:38.713Z,15.63
2022-11-28T02:03:16.143Z,16.02
2022-11-28T02:03:50.369Z,16.40
2022-11-28T02:04:25.819Z,15.35
2022-11-28T02:04:58.797Z,15.40
2022-11-28T02:05:31.019Z,16.73
2022-11-28T02:06:03.059Z,15.63
2022-11-28T02:06:35.882Z,15.88
2022-11-28T02:07:08.289Z,15.40
2022-11-28T02:07:40.809Z,15.70
2022-11-28T02:08:12.812Z,15.77
2022-11-28T02:08:44.699Z,16.40
2022-11-28T02:09:16.943Z,16.00
2022-11-28T02:09:48.727Z,15.60
2022-11-28T02:10:32.411Z,16.73
2022-11-28T02:11:22.672Z,13.95
2022-11-28T02:12:11.645Z,15.38
2022-11-28T02:13:02.611Z,14.38
2022-11-28T02:13:59.902Z,14.15
2022-11-28T02:14:34.489Z,13.20
2022-11-28T02:15:14.756Z,14.55
2022-11-28T02:16:17.985Z,13.98
2022-11-28T02:17:04.694Z,13.95
2022-11-28T02:17:57.741Z,13.88
2022-11-28T02:18:46.108Z,13.25
2022-11-28T02:19:51.775Z,12.75
2022-11-28T02:21:18.436Z,14.27
2022-11-28T02:22:14.077Z,14.68
2022-11-28T02:23:10.342Z,13.65
2022-11-28T02:24:07.415Z,13.30
2022-11-28T02:24:54.032Z,14.43
2022-11-28T02:25:37.068Z,14.77
2022-11-28T02:26:33.442Z,14.68
2022-11-28T02:27:30.435Z,13.23
2022-11-28T02:28:14.419Z,15.73
2022-11-28T02:29:18.570Z,13.82
2022-11-28T02:30:06.547Z,15.52
2022-11-28T02:31:12.522Z,14.30
2022-11-28T02:31:53.396Z,14.85
2022-11-28T02:33:03.527Z,13.85
2022-11-28T02:34:08.000Z,15.18
2022-11-28T02:35:06.435Z,15.95
2022-11-28T02:35:53.007Z,14.93
2022-11-28T02:36:34.149Z,14.93
2022-11-28T02:37:11.469Z,14.13
2022-11-28T02:37:55.133Z,14.82
2022-11-28T02:38:32.731Z,14.80
2022-11-28T02:39:14.578Z,14.02
2022-11-28T02:40:08.025Z,14.43
2022-11-28T02:40:58.780Z,14.10
2022-11-28T02:41:41.055Z,13.80
2022-11-28T02:42:22.415Z,14.55
2022-11-28T02:43:15.307Z,14.82
2022-11-28T02:43:53.156Z,13.30
2022-11-28T02:44:55.616Z,14.48
2022-11-28T02:46:06.606Z,14.57
2022-11-28T02:46:47.436Z,13.93
2022-11-28T02:47:27.264Z,13.13
2022-11-28T02:48:08.059Z,12.98
2022-11-28T02:49:19.320Z,12.45
2022-11-28T02:50:02.233Z,12.20
2022-11-28T02:50:42.041Z,12.00
2022-11-28T02:51:31.514Z,12.57
2022-11-28T02:52:28.754Z,12.25
2022-11-28T02:53:14.849Z,11.65
2022-11-28T02:53:48.330Z,13.15
2022-11-28T02:54:21.780Z,12.40
2022-11-28T02:54:55.741Z,12.52
2022-11-28T02:55:27.882Z,12.82
2022-11-28T02:56:00.392Z,12.05
2022-11-28T02:56:32.257Z,13.27
2022-11-28T02:57:04.296Z,12.80
2022-11-28T02:57:41.762Z,13.27
2022-11-28T02:58:13.625Z,12.52
2022-11-28T02:58:45.466Z,12.48
2022-11-28T02:59:38.846Z,11.95
2022-11-28T03:00:22.984Z,11.10
2022-11-28T03:00:55.526Z,11.43
2022-11-28T03:01:35.201Z,11.88
2022-11-28T03:02:18.598Z,12.07
2022-11-28T03:03:04.164Z,10.75
2022-11-28T03:03:58.654Z,10.32
2022-11-28T03:05:00.434Z,10.57
2022-11-28T03:05:52.011Z,10.77
2022-11-28T03:06:23.885Z,11.25
2022-11-28T03:07:17.732Z,10.85
2022-11-28T03:08:15.829Z,10.73
2022-11-28T03:08:47.692Z,10.85
2022-11-28T03:09:38.525Z,11.93
2022-11-28T03:10:31.594Z,10.98
2022-11-28T03:11:41.169Z,10.50
2022-11-28T03:12:39.311Z,10.35
2022-11-28T03:13:30.483Z,10.65
2022-11-28T03:14:53.405Z,11.80
2022-11-28T03:15:37.458Z,11.32
2022-11-28T03:16:18.326Z,10.35
2022-11-28T03:17:18.542Z,9.93
2022-11-28T03:17:53.678Z,11.50
2022-11-28T03:18:39.563Z,11.50
2022-11-28T03:19:28.356Z,10.63
2022-11-28T03:20:15.377Z,10.40
2022-11-28T03:21:11.386Z,11.23
2022-11-28T03:21:49.414Z,11.63
2022-11-28T03:22:38.641Z,11.45
2022-11-28T03:23:26.745Z,10.32
2022-11-28T03:24:03.196Z,12.48
2022-11-28T03:24:42.239Z,12.15
2022-11-28T03:25:34.166Z,11.73
2022-11-28T03:26:29.250Z,11.05
2022-11-28T03:27:17.747Z,11.02
2022-11-28T03:27:59.559Z,12.27
2022-11-28T03:29:05.873Z,12.13
2022-11-28T03:29:45.076Z,11.10
2022-11-28T03:30:19.808Z,11.30
2022-11-28T03:31:03.581Z,12.68
2022-11-28T03:31:42.540Z,11.77
2022-11-28T03:32:22.373Z,12.37
2022-11-28T03:32:57.081Z,12.18
2022-11-28T03:33:34.261Z,13.00
2022-11-28T03:34:12.132Z,12.48
2022-11-28T03:34:47.682Z,13.07
2022-11-28T03:35:23.460Z,12.30
2022-11-28T03:36:03.752Z,12.95
2022-11-28T03:36:47.393Z,12.32
2022-11-28T03:37:33.777Z,11.63
2022-11-28T03:38:15.339Z,12.95
2022-11-28T03:38:56.620Z,13.20
2022-11-28T03:39:35.763Z,13.55
2022-11-28T03:40:14.250Z,12.07
2022-11-28T03:40:51.260Z,12.90
2022-11-28T03:41:49.403Z,13.10
2022-11-28T03:42:24.681Z,12.07
2022-11-28T03:43:08.480Z,15.13
2022-11-28T03:43:46.064Z,13.82
2022-11-28T03:44:31.114Z,14.02
2022-11-28T03:45:10.927Z,12.37
2022-11-28T03:45:47.759Z,13.20
2022-11-28T03:46:23.701Z,12.63
2022-11-28T03:46:58.113Z,14.27
2022-11-28T03:47:36.366Z,13.77
2022-11-28T03:48:20.821Z,12.77
2022-11-28T03:48:56.868Z,14.15
2022-11-28T03:49:38.093Z,13.77
2022-11-28T03:50:19.717Z,13.50
2022-11-28T03:51:03.002Z,14.68
2022-11-28T03:51:41.977Z,14.43
2022-11-28T03:52:24.090Z,13.88
2022-11-28T03:53:08.401Z,14.07
2022-11-28T03:53:48.935Z,13.70
2022-11-28T03:54:40.502Z,14.65
2022-11-28T03:55:42.113Z,13.73
2022-11-28T03:56:40.084Z,13.45
2022-11-28T03:57:35.201Z,13.07
2022-11-28T03:58:16.755Z,13.10
2022-11-28T03:58:58.904Z,14.02
2022-11-28T03:59:37.500Z,13.73
2022-11-28T04:00:13.000Z,13.98
2022-11-28T04:01:33.927Z,14.60
2022-11-28T04:02:44.501Z,13.10
2022-11-28T04:03:41.516Z,14.10
2022-11-28T04:04:34.436Z,13.35
2022-11-28T04:05:44.639Z,12.63
2022-11-28T04:06:37.856Z,12.70
2022-11-28T04:07:24.700Z,12.50
2022-11-28T04:07:56.534Z,13.20
2022-11-28T04:08:34.111Z,13.35
2022-11-28T04:09:14.641Z,13.45
2022-11-28T04:10:19.220Z,13.13
2022-11-28T04:10:51.011Z,12.25
2022-11-28T04:11:29.706Z,14.35
2022-11-28T04:12:09.822Z,14.65
2022-11-28T04:13:00.303Z,13.98
2022-11-28T04:13:43.089Z,14.30
2022-11-28T04:14:30.495Z,12.45
2022-11-28T04:15:09.966Z,13.57
2022-11-28T04:15:47.961Z,13.00
2022-11-28T04:16:34.205Z,13.07
2022-11-28T04:17:19.667Z,15.25
2022-11-28T04:18:02.546Z,13.55
2022-11-28T04:18:58.048Z,13.70
2022-11-28T04:19:36.994Z,14.32
2022-11-28T04:20:18.973Z,13.70
2022-11-28T04:21:22.615Z,14.68
2022-11-28T04:22:11.314Z,15.27
2022-11-28T04:22:51.149Z,13.65
2022-11-28T04:23:24.633Z,14.48
2022-11-28T04:24:02.460Z,15.30
2022-11-28T04:24:39.292Z,14.15
2022-11-28T04:25:15.208Z,14.43
2022-11-28T04:25:55.403Z,13.57
2022-11-28T04:26:41.555Z,15.13
2022-11-28T04:27:18.098Z,13.27
2022-11-28T04:27:56.514Z,15.40
2022-11-28T04:28:32.350Z,14.52
2022-11-28T04:29:10.242Z,15.15
2022-11-28T04:29:49.835Z,15.90
2022-11-28T04:30:22.055Z,15.02
2022-11-28T04:30:56.485Z,16.67
2022-11-28T04:31:29.098Z,15.15
2022-11-28T04:32:03.699Z,15.52
2022-11-28T04:32:39.769Z,14.57
2022-11-28T04:33:14.393Z,15.07
2022-11-28T04:33:52.057Z,14.73
2022-11-28T04:34:26.318Z,16.65
2022-11-28T04:35:05.337Z,16.50
2022-11-28T04:35:42.247Z,16.25
2022-11-28T04:36:17.584Z,15.27
2022-11-28T04:36:50.751Z,14.75
2022-11-28T04:37:25.218Z,16.15
2022-11-28T04:37:58.879Z,15.00
2022-11-28T04:38:32.750Z,16.80
2022-11-28T04:39:11.630Z,15.88
2022-11-28T04:39:48.061Z,16.02
2022-11-28T04:40:22.256Z,15.82
2022-11-28T04:41:00.924Z,14.85
2022-11-28T04:41:38.480Z,15.32
2022-11-28T04:42:55.585Z,16.25
2022-11-28T04:43:34.202Z,16.25
2022-11-28T04:44:14.950Z,15.65
2022-11-28T04:44:57.622Z,15.55
2022-11-28T04:45:49.917Z,16.12
2022-11-28T04:46:27.932Z,14.87
2022-11-28T04:46:59.919Z,15.73
2022-11-28T04:47:31.811Z,15.95
2022-11-28T04:48:04.284Z,16.48
2022-11-28T04:48:36.291Z,16.30
2022-11-28T04:49:08.813Z,16.65
2022-11-28T04:49:40.748Z,15.57
2022-11-28T04:50:13.602Z,17.02
2022-11-28T04:51:06.675Z,15.23
2022-11-28T04:51:58.416Z,17.02
2022-11-28T04:53:00.554Z,16.48
2022-11-28T04:53:44.278Z,16.37
2022-11-28T04:54:42.972Z,15.85
2022-11-28T04:55:30.444Z,15.48
2022-11-28T04:56:26.713Z,15.90
2022-11-28T04:57:12.966Z,15.25
2022-11-28T04:57:57.349Z,15.63
2022-11-28T04:58:40.574Z,14.20
2022-11-28T04:59:15.528Z,16.17
2022-11-28T04:59:49.103Z,14.45
2022-11-28T05:00:22.543Z,14.13
2022-11-28T05:00:55.884Z,15.57
2022-11-28T05:01:32.121Z,16.65
2022-11-28T05:02:05.886Z,17.55
2022-11-28T05:02:39.407Z,15.18
2022-11-28T05:03:12.030Z,17.20
2022-11-28T05:03:44.136Z,15.70
2022-11-28T05:04:17.300Z,16.73
2022-11-28T05:04:49.477Z,16.58
2022-11-28T05:05:24.608Z,16.12
2022-11-28T05:05:56.755Z,16.48
2022-11-28T05:06:32.899Z,17.12
2022-11-28T05:07:07.701Z,16.52
2022-11-28T05:07:39.877Z,15.60
2022-11-28T05:08:11.977Z,15.48
2022-11-28T05:08:44.007Z,17.30
2022-11-28T05:09:15.907Z,17.00
2022-11-28T05:09:48.199Z,16.40
2022-11-28T05:10:20.736Z,16.92
2022-11-28T05:10:52.658Z,15.50
2022-11-28T05:11:24.721Z,15.60
2022-11-28T05:11:56.611Z,15.00
2022-11-28T05:12:28.426Z,15.75
2022-11-28T05:13:00.245Z,15.98
2022-11-28T05:13:32.089Z,16.30
2022-11-28T05:14:04.015Z,16.00
2022-11-28T05:14:35.918Z,16.73
2022-11-28T05:15:08.291Z,16.48
2022-11-28T05:15:40.460Z,15.60
2022-11-28T05:16:13.075Z,16.60
2022-11-28T05:16:45.218Z,16.05
2022-11-28T05:17:17.583Z,16.42
2022-11-28T05:17:49.709Z,16.45
2022-11-28T05:18:21.553Z,16.12
2022-11-28T05:18:53.538Z,15.85
2022-11-28T05:19:25.383Z,16.73
2022-11-28T05:19:57.300Z,16.02
2022-11-28T05:20:29.457Z,15.35
2022-11-28T05:21:01.738Z,14.50
2022-11-28T05:21:33.596Z,16.27
2022-11-28T05:22:05.452Z,16.25
2022-11-28T05:22:37.329Z,15.50
2022-11-28T05:23:09.172Z,15.85
2022-11-28T05:23:43.844Z,15.82
2022-11-28T05:24:15.675Z,16.45
2022-11-28T05:24:47.679Z,15.13
2022-11-28T05:25:19.615Z,17.35
2022-11-28T05:25:51.539Z,15.73
2022-11-28T05:26:24.157Z,14.70
2022-11-28T05:26:56.044Z,15.45
2022-11-28T05:27:27.894Z,16.30
2022-11-28T05:27:59.811Z,15.55
2022-11-28T05:28:31.686Z,15.15
2022-11-28T05:29:04.346Z,15.80
2022-11-28T05:29:36.250Z,16.85
2022-11-28T05:30:10.096Z,16.87
2022-11-28T05:30:42.130Z,14.40
2022-11-28T05:31:14.988Z,15.27
2022-11-28T05:31:47.233Z,15.40
2022-11-28T05:32:19.388Z,15.90
2022-11-28T05:32:51.258Z,15.60
2022-11-28T05:33:23.126Z,15.80
2022-11-28T05:33:56.123Z,16.50
2022-11-28T05:34:28.071Z,16.52
2022-11-28T05:34:59.918Z,15.90
2022-11-28T05:35:31.788Z,14.90
2022-11-28T05:36:11.265Z,15.90
2022-11-28T05:36:44.700Z,15.68
2022-11-28T05:37:16.889Z,15.60
2022-11-28T05:37:48.771Z,16.37
2022-11-28T05:38:20.805Z,15.95
2022-11-28T05:38:52.637Z,16.55
2022-11-28T05:39:24.527Z,15.75
2022-11-28T05:39:56.430Z,16.08
2022-11-28T05:40:28.322Z,16.23
2022-11-28T05:41:01.417Z,16.17
2022-11-28T05:41:33.868Z,16.73
2022-11-28T05:42:06.037Z,16.52
2022-11-28T05:42:38.170Z,15.38
2022-11-28T05:43:13.367Z,16.12
2022-11-28T05:43:45.183Z,15.85
2022-11-28T05:44:17.006Z,16.37
2022-11-28T05:44:49.681Z,14.30
2022-11-28T05:45:21.544Z,15.85
2022-11-28T05:45:54.408Z,16.83
2022-11-28T05:46:27.505Z,16.77
2022-11-28T05:46:59.331Z,16.02
2022-11-28T05:47:32.835Z,16.65
2022-11-28T05:48:05.360Z,15.85
2022-11-28T05:48:37.332Z,15.25
2022-11-28T05:49:09.244Z,15.88
2022-11-28T05:49:41.498Z,15.73
2022-11-28T05:50:13.626Z,16.75
2022-11-28T05:50:45.492Z,16.30
2022-11-28T05:51:17.939Z,16.90
2022-11-28T05:51:49.892Z,15.25
2022-11-28T05:52:21.706Z,16.45
2022-11-28T05:52:53.539Z,16.40
2022-11-28T05:53:26.032Z,17.40
2022-11-28T05:53:57.889Z,16.98
2022-11-28T05:54:30.648Z,16.83
2022-11-28T05:55:02.560Z,15.75
2022-11-28T05:55:34.936Z,15.50
2022-11-28T05:56:12.230Z,15.55
2022-11-28T05:56:44.042Z,16.17
2022-11-28T05:57:17.151Z,16.05
2022-11-28T05:57:49.024Z,15.52
2022-11-28T05:58:20.878Z,16.80
2022-11-28T05:58:54.243Z,15.35
2022-11-28T05:59:26.446Z,16.42
2022-11-28T05:59:58.374Z,16.83
2022-11-28T06:00:31.155Z,17.70
2022-11-28T06:01:17.650Z,15.50
2022-11-28T06:01:49.582Z,15.90
2022-11-28T06:02:21.536Z,15.90
2022-11-28T06:02:58.390Z,16.98
2022-11-28T06:03:32.919Z,16.02
2022-11-28T06:04:04.778Z,17.35
2022-11-28T06:04:36.797Z,15.30
2022-11-28T06:05:34.784Z,16.52
2022-11-28T06:06:00.655Z,15.95
2022-11-28T06:06:34.859Z,16.45
2022-11-28T06:07:06.730Z,16.37
2022-11-28T06:07:38.633Z,16.67
2022-11-28T06:08:14.255Z,17.52
2022-11-28T06:08:47.935Z,15.77
2022-11-28T06:09:24.507Z,14.73
2022-11-28T06:09:57.715Z,15.43
2022-11-28T06:10:29.692Z,16.95
2022-11-28T06:11:01.566Z,17.73
2022-11-28T06:11:34.446Z,17.33
2022-11-28T06:12:06.975Z,17.20
2022-11-28T06:12:38.832Z,16.48
2022-11-28T06:13:10.668Z,16.15
2022-11-28T06:13:43.794Z,16.77
2022-11-28T06:14:15.650Z,16.67
2022-11-28T06:14:47.506Z,16.35
2022-11-28T06:15:19.403Z,16.27
2022-11-28T06:15:51.647Z,16.30
2022-11-28T06:16:26.632Z,17.08
2022-11-28T06:16:59.014Z,17.02
2022-11-28T06:17:31.456Z,16.65
2022-11-28T06:18:03.314Z,17.87
2022-11-28T06:18:35.215Z,18.20
2022-11-28T06:19:07.125Z,17.10
2022-11-28T06:19:39.363Z,17.90
2022-11-28T06:20:11.344Z,16.98
2022-11-28T06:20:43.207Z,15.60
2022-11-28T06:21:16.096Z,16.48
2022-11-28T06:21:50.202Z,19.77
2022-11-28T06:22:22.472Z,19.12
2022-11-28T06:22:54.363Z,17.08
2022-11-28T06:23:26.338Z,15.75
2022-11-28T06:23:59.710Z,19.20
2022-11-28T06:24:31.546Z,17.35
2022-11-28T06:25:03.712Z,16.80
2022-11-28T06:25:35.573Z,16.62
2022-11-28T06:26:09.904Z,14.87
2022-11-28T06:26:41.770Z,16.02
2022-11-28T06:27:13.583Z,15.50
2022-11-28T06:27:45.820Z,15.90
2022-11-28T06:28:17.650Z,16.33
2022-11-28T06:28:49.921Z,15.45
2022-11-28T06:29:22.080Z,17.35
2022-11-28T06:29:53.861Z,16.83
2022-11-28T06:30:25.801Z,16.70
2022-11-28T06:30:57.680Z,16.05
2022-11-28T06:31:30.351Z,15.73
2022-11-28T06:32:02.407Z,16.15
2022-11-28T06:32:34.316Z,17.95
2022-11-28T06:33:06.459Z,17.30
2022-11-28T06:33:38.559Z,15.57
2022-11-28T06:34:12.954Z,18.00
2022-11-28T06:34:44.792Z,17.05
2022-11-28T06:35:16.752Z,18.23
2022-11-28T06:35:48.641Z,17.15
2022-11-28T06:36:21.710Z,16.08
2022-11-28T06:36:53.546Z,16.35
2022-11-28T06:37:25.428Z,17.23
2022-11-28T06:37:57.301Z,27.70
2022-11-28T06:38:29.837Z,27.87
2022-11-28T06:39:01.765Z,24.87
2022-11-28T06:39:33.660Z,26.10
2022-11-28T06:40:06.146Z,24.08
2022-11-28T06:40:39.775Z,23.38
2022-11-28T06:41:14.584Z,23.40
2022-11-28T06:41:46.475Z,22.92
2022-11-28T06:42:18.383Z,20.23
2022-11-28T06:42:51.145Z,20.73
2022-11-28T06:43:23.052Z,20.88
2022-11-28T06:43:56.919Z,19.35
2022-11-28T06:44:28.819Z,19.02
2022-11-28T06:45:00.648Z,23.20
2022-11-28T06:45:35.621Z,23.98
2022-11-28T06:46:16.884Z,23.85
2022-11-28T06:46:49.014Z,22.05
2022-11-28T06:47:20.898Z,21.52
2022-11-28T06:47:52.726Z,19.90
2022-11-28T06:48:24.881Z,28.38
2022-11-28T06:48:57.066Z,24.27
2022-11-28T06:49:28.971Z,19.52
2022-11-28T06:50:01.096Z,29.20
2022-11-28T06:50:33.039Z,21.73
2022-11-28T06:51:06.606Z,24.17
2022-11-28T06:51:39.248Z,25.20
2022-11-28T06:52:11.103Z,21.60
2022-11-28T06:52:42.998Z,20.30
2022-11-28T06:53:14.842Z,20.65
2022-11-28T06:53:46.918Z,20.95
2022-11-28T06:54:19.024Z,19.45
2022-11-28T06:54:51.085Z,21.20
2022-11-28T06:55:23.099Z,21.55
2022-11-28T06:55:55.035Z,18.15
2022-11-28T06:56:27.169Z,17.17
2022-11-28T06:56:59.018Z,17.83
2022-11-28T06:57:32.775Z,17.27
2022-11-28T06:58:04.797Z,18.08
2022-11-28T06:58:37.274Z,15.57
2022-11-28T06:59:12.156Z,16.02
2022-11-28T06:59:44.508Z,15.02
2022-11-28T07:00:17.417Z,15.57
2022-11-28T07:00:49.800Z,15.63
2022-11-28T07:01:27.022Z,16.10
2022-11-28T07:02:07.173Z,14.38
2022-11-28T07:02:39.327Z,15.00
2022-11-28T07:03:12.694Z,15.30
2022-11-28T07:03:45.037Z,15.10
2022-11-28T07:04:16.900Z,14.68
2022-11-28T07:04:50.795Z,14.77
2022-11-28T07:05:23.008Z,14.90
2022-11-28T07:05:54.861Z,15.27
2022-11-28T07:06:27.946Z,14.73
2022-11-28T07:06:59.806Z,14.80
2022-11-28T07:07:31.745Z,15.18
2022-11-28T07:08:03.850Z,15.05
2022-11-28T07:08:36.737Z,15.98
2022-11-28T07:09:08.621Z,15.50
2022-11-28T07:09:40.560Z,13.98
2022-11-28T07:10:12.877Z,15.60
2022-11-28T07:10:44.731Z,14.55
2022-11-28T07:11:19.474Z,14.30
2022-11-28T07:11:51.344Z,14.93
2022-11-28T07:12:23.166Z,14.95
2022-11-28T07:13:00.206Z,14.75
2022-11-28T07:13:34.338Z,14.55
2022-11-28T07:14:06.145Z,14.45
2022-11-28T07:14:38.280Z,16.08
2022-11-28T07:15:10.564Z,14.43
2022-11-28T07:15:49.823Z,14.50
2022-11-28T07:16:21.723Z,15.23
2022-11-28T07:16:53.950Z,16.08
2022-11-28T07:17:25.913Z,14.73
2022-11-28T07:17:57.716Z,15.65
2022-11-28T07:18:29.725Z,15.77
2022-11-28T07:19:01.559Z,15.63
2022-11-28T07:19:33.414Z,16.37
2022-11-28T07:20:06.491Z,15.20
2022-11-28T07:20:38.362Z,15.07
2022-11-28T07:21:11.086Z,16.45
2022-11-28T07:21:43.093Z,14.40
2022-11-28T07:22:14.924Z,14.73
2022-11-28T07:22:48.529Z,17.00
2022-11-28T07:23:20.369Z,14.80
2022-11-28T07:23:53.362Z,14.10
2022-11-28T07:24:25.261Z,15.82
2022-11-28T07:24:57.337Z,15.48
2022-11-28T07:25:29.244Z,15.50
2022-11-28T07:26:03.477Z,15.90
2022-11-28T07:26:38.048Z,17.17
2022-11-28T07:27:10.023Z,16.27
2022-11-28T07:27:42.495Z,19.20
2022-11-28T07:28:14.338Z,17.98
2022-11-28T07:28:46.948Z,18.00
2022-11-28T07:29:19.461Z,18.05
2022-11-28T07:29:51.316Z,17.30
2022-11-28T07:30:23.404Z,17.60
2022-11-28T07:31:07.012Z,17.80
2022-11-28T07:31:39.165Z,17.10
2022-11-28T07:32:11.292Z,16.48
2022-11-28T07:32:43.229Z,16.00
2022-11-28T07:33:15.065Z,17.67
2022-11-28T07:33:49.360Z,16.23
2022-11-28T07:34:21.222Z,17.90
2022-11-28T07:34:53.216Z,23.67
2022-11-28T07:35:25.104Z,19.17
2022-11-28T07:36:01.339Z,14.30
2022-11-28T07:36:33.531Z,17.80
2022-11-28T07:37:05.673Z,16.95
2022-11-28T07:37:37.743Z,15.57
2022-11-28T07:38:09.669Z,18.25
2022-11-28T07:38:41.569Z,15.60
2022-11-28T07:39:16.288Z,16.25
2022-11-28T07:39:48.112Z,16.50
2022-11-28T07:40:20.705Z,17.70
2022-11-28T07:40:52.534Z,19.87
2022-11-28T07:41:26.773Z,19.05
2022-11-28T07:41:59.593Z,19.35
2022-11-28T07:42:31.982Z,18.23
2022-11-28T07:43:07.684Z,18.10
2022-11-28T07:43:41.128Z,18.35
2022-11-28T07:44:13.208Z,19.30
2022-11-28T07:44:45.821Z,19.08
2022-11-28T07:45:17.718Z,20.15
2022-11-28T07:46:00.476Z,17.92
2022-11-28T07:46:34.369Z,18.37
2022-11-28T07:47:06.404Z,17.17
2022-11-28T07:47:38.698Z,16.90
2022-11-28T07:48:10.589Z,17.15
2022-11-28T07:48:43.182Z,19.00
2022-11-28T07:49:15.658Z,18.12
2022-11-28T07:49:47.787Z,16.58